Time;durP1;ratioP1;P1;durP2;ratioP2;P2;SDS_P1;SDS_P2;PMS_P1;PMS_P2;Temp;Humidity;BMP_temperature;BMP_pressure;BME280_temperature;BME280_humidity;BME280_pressure;Samples;Min_cycle;Max_cycle;Signal;HPM_P1;HPM_P2
2024/03/09 00:00:38;;;;;;;28.27;20.42;;;9.10;75.60;;;;;;5055987;28;20022;-77
2024/03/09 00:03:05;;;;;;;28.27;22.27;;;9.00;76.00;;;;;;5056794;28;20065;-78
2024/03/09 00:05:31;;;;;;;28.15;20.67;;;9.00;76.00;;;;;;5057763;28;20048;-77
2024/03/09 00:07:58;;;;;;;27.40;20.17;;;9.00;76.10;;;;;;5057318;28;20040;-76
2024/03/09 00:10:28;;;;;;;29.15;20.60;;;9.00;76.20;;;;;;5053986;28;20123;-78
2024/03/09 00:12:54;;;;;;;27.42;20.63;;;9.00;76.10;;;;;;5057809;28;20146;-76
2024/03/09 00:15:23;;;;;;;32.13;22.23;;;8.90;76.00;;;;;;5060220;28;20051;-76
2024/03/09 00:17:53;;;;;;;29.73;21.13;;;8.90;76.00;;;;;;5059736;28;20522;-78
2024/03/09 00:20:21;;;;;;;26.02;19.50;;;9.00;75.70;;;;;;5056464;28;20016;-76
2024/03/09 00:22:55;;;;;;;28.83;20.52;;;9.00;75.70;;;;;;5056834;28;20086;-76
2024/03/09 00:25:22;;;;;;;29.42;20.10;;;9.00;75.70;;;;;;5050442;28;20036;-78
2024/03/09 00:27:48;;;;;;;27.90;20.65;;;9.00;75.80;;;;;;5072414;28;20039;-78
2024/03/09 00:30:18;;;;;;;29.33;20.00;;;9.00;76.10;;;;;;5054945;28;20112;-76
2024/03/09 00:32:55;;;;;;;26.85;19.77;;;9.00;76.80;;;;;;5054817;28;20024;-76
2024/03/09 00:35:21;;;;;;;27.52;19.33;;;9.00;77.60;;;;;;5051156;28;20029;-77
2024/03/09 00:37:48;;;;;;;27.63;19.80;;;9.00;78.10;;;;;;5051373;28;20103;-78
2024/03/09 00:40:14;;;;;;;29.48;20.45;;;9.00;78.60;;;;;;5054379;28;20032;-76
2024/03/09 00:42:41;;;;;;;28.13;20.65;;;9.00;79.40;;;;;;5055111;28;20048;-76
2024/03/09 00:45:08;;;;;;;27.60;20.45;;;9.00;80.00;;;;;;5059459;28;20039;-78
2024/03/09 00:47:36;;;;;;;25.48;18.63;;;9.00;80.40;;;;;;5045499;28;20054;-78
2024/03/09 00:50:09;;;;;;;27.15;19.67;;;8.90;80.90;;;;;;5059506;28;20094;-78
2024/03/09 00:52:36;;;;;;;26.27;18.33;;;8.90;81.30;;;;;;5051924;28;20488;-76
2024/03/09 00:55:02;;;;;;;27.85;19.65;;;8.80;81.90;;;;;;5036156;28;20461;-78
2024/03/09 00:57:28;;;;;;;29.17;20.30;;;8.80;82.10;;;;;;5051376;28;20536;-78
2024/03/09 00:59:54;;;;;;;30.15;21.15;;;8.70;82.60;;;;;;5047520;28;20043;-77
2024/03/09 01:02:20;;;;;;;28.75;20.83;;;8.70;82.80;;;;;;5051343;28;20025;-76
2024/03/09 01:04:50;;;;;;;30.20;21.48;;;8.70;82.90;;;;;;5053418;28;20380;-76
2024/03/09 01:07:20;;;;;;;28.23;20.10;;;8.60;82.80;;;;;;5055188;28;20120;-78
2024/03/09 01:09:50;;;;;;;29.17;20.27;;;8.60;82.80;;;;;;5056726;28;20043;-76
2024/03/09 01:12:17;;;;;;;30.38;21.15;;;8.60;82.90;;;;;;5057478;28;20032;-77
2024/03/09 01:14:47;;;;;;;28.50;20.35;;;8.70;82.70;;;;;;5056773;28;20116;-75
2024/03/09 01:17:23;;;;;;;29.98;20.50;;;8.70;82.70;;;;;;5063453;28;20036;-77
2024/03/09 01:19:52;;;;;;;30.27;21.08;;;8.60;82.50;;;;;;5056296;28;20028;-78
2024/03/09 01:22:19;;;;;;;26.95;19.23;;;8.70;82.20;;;;;;5052677;28;20488;-76
2024/03/09 01:24:45;;;;;;;29.77;21.98;;;8.70;82.30;;;;;;5057645;28;20055;-76
2024/03/09 01:27:11;;;;;;;32.33;20.52;;;8.70;82.30;;;;;;5058021;28;20538;-77
2024/03/09 01:29:43;;;;;;;29.17;20.67;;;8.70;82.40;;;;;;5054875;28;20092;-76
2024/03/09 01:32:13;;;;;;;28.95;20.88;;;8.60;82.50;;;;;;5055720;28;20037;-76
2024/03/09 01:34:38;;;;;;;27.27;20.02;;;8.70;82.00;;;;;;5053471;28;20530;-76
2024/03/09 01:37:10;;;;;;;29.20;20.67;;;8.70;82.00;;;;;;5057567;28;20123;-77
2024/03/09 01:39:36;;;;;;;28.15;20.70;;;8.70;82.10;;;;;;5053957;28;20017;-76
2024/03/09 01:42:02;;;;;;;28.38;20.55;;;8.70;82.00;;;;;;5051316;28;20127;-78
2024/03/09 01:44:27;;;;;;;28.60;20.38;;;8.70;82.10;;;;;;5057949;28;20169;-77
2024/03/09 01:46:53;;;;;;;30.42;22.00;;;8.60;82.30;;;;;;5055838;28;20491;-78
2024/03/09 01:49:20;;;;;;;31.98;21.67;;;8.60;82.40;;;;;;5053789;28;20119;-78
2024/03/09 01:51:47;;;;;;;29.85;20.88;;;8.60;82.30;;;;;;5049929;28;20025;-77
2024/03/09 01:54:19;;;;;;;29.10;21.42;;;8.60;82.40;;;;;;5053705;28;20039;-76
2024/03/09 01:56:48;;;;;;;29.30;21.05;;;8.60;82.10;;;;;;5055163;28;20056;-76
2024/03/09 01:59:15;;;;;;;30.90;21.25;;;8.60;82.10;;;;;;5057329;28;20024;-78
2024/03/09 02:01:42;;;;;;;29.77;21.10;;;8.70;82.00;;;;;;5052574;28;20044;-76
2024/03/09 02:04:09;;;;;;;30.67;22.10;;;8.70;82.10;;;;;;5052682;28;20078;-77
2024/03/09 02:06:35;;;;;;;29.48;20.55;;;8.70;82.10;;;;;;5056951;28;20037;-77
2024/03/09 02:09:07;;;;;;;29.75;20.52;;;8.60;82.10;;;;;;5053444;28;20029;-76
2024/03/09 02:11:36;;;;;;;28.90;21.10;;;8.60;82.10;;;;;;5051140;28;20040;-76
2024/03/09 02:14:06;;;;;;;28.75;21.17;;;8.60;82.00;;;;;;5057540;28;20024;-79
2024/03/09 02:16:32;;;;;;;29.75;21.00;;;8.60;82.00;;;;;;5051870;28;20025;-79
2024/03/09 02:18:58;;;;;;;32.58;21.17;;;8.60;82.30;;;;;;5052469;28;20031;-76
2024/03/09 02:21:24;;;;;;;31.02;21.38;;;8.60;82.40;;;;;;5051096;28;20336;-78
2024/03/09 02:23:52;;;;;;;28.70;20.77;;;8.60;82.30;;;;;;5052610;28;20029;-76
2024/03/09 02:26:18;;;;;;;32.20;21.80;;;8.60;82.40;;;;;;5048025;28;20106;-76
2024/03/09 02:28:53;;;;;;;30.05;20.27;;;8.50;82.50;;;;;;5052692;28;20484;-77
2024/03/09 02:31:23;;;;;;;30.60;22.20;;;8.50;82.60;;;;;;5054879;28;20037;-78
2024/03/09 02:33:52;;;;;;;30.05;21.73;;;8.50;82.60;;;;;;5056722;28;20032;-76
2024/03/09 02:36:32;;;;;;;28.63;21.33;;;8.40;82.70;;;;;;5053422;28;20012;-76
2024/03/09 02:38:59;;;;;;;32.33;21.63;;;8.40;83.00;;;;;;5056362;28;20423;-75
2024/03/09 02:41:25;;;;;;;29.88;21.08;;;8.40;83.00;;;;;;5054763;28;20379;-74
2024/03/09 02:43:53;;;;;;;30.73;21.77;;;8.40;82.90;;;;;;5057592;28;20825;-75
2024/03/09 02:46:21;;;;;;;32.97;22.33;;;8.40;82.90;;;;;;5049854;28;20029;-75
2024/03/09 02:48:51;;;;;;;30.80;22.42;;;8.30;83.10;;;;;;5051099;28;20032;-75
2024/03/09 02:51:17;;;;;;;31.05;21.42;;;8.20;83.20;;;;;;5055189;28;20793;-75
2024/03/09 02:53:46;;;;;;;32.22;22.48;;;8.10;83.30;;;;;;5058932;28;20457;-76
2024/03/09 02:56:13;;;;;;;30.05;21.77;;;8.10;83.80;;;;;;5054867;28;20517;-77
2024/03/09 02:58:38;;;;;;;33.10;23.20;;;8.00;84.00;;;;;;5054518;28;20035;-75
2024/03/09 03:01:07;;;;;;;29.92;21.80;;;7.90;84.40;;;;;;5049604;28;20475;-77
2024/03/09 03:03:49;;;;;;;30.77;21.73;;;7.80;84.70;;;;;;5056952;28;20384;-77
2024/03/09 03:06:20;;;;;;;32.00;23.65;;;7.80;84.70;;;;;;5049288;28;20119;-75
2024/03/09 03:08:52;;;;;;;33.33;22.05;;;7.70;85.00;;;;;;5056760;28;20040;-75
2024/03/09 03:11:19;;;;;;;31.70;22.65;;;7.70;85.10;;;;;;5053056;28;20060;-77
2024/03/09 03:13:46;;;;;;;32.83;22.02;;;7.60;85.40;;;;;;5055105;28;20100;-77
2024/03/09 03:16:42;;;;;;;31.20;23.13;;;7.60;85.40;;;;;;5047726;28;20384;-78
2024/03/09 03:19:09;;;;;;;31.77;22.25;;;7.60;85.40;;;;;;5055602;28;20086;-77
2024/03/09 03:21:40;;;;;;;32.92;22.42;;;7.60;85.60;;;;;;5053426;28;20044;-77
2024/03/09 03:24:10;;;;;;;35.75;24.52;;;7.50;85.70;;;;;;5050493;28;20556;-77
2024/03/09 03:26:36;;;;;;;34.17;22.40;;;7.50;85.80;;;;;;5054418;28;20109;-77
2024/03/09 03:29:01;;;;;;;34.40;23.27;;;7.50;85.80;;;;;;5055711;28;20261;-78
2024/03/09 03:31:28;;;;;;;32.55;22.70;;;7.50;86.00;;;;;;5047651;28;20036;-77
2024/03/09 03:33:56;;;;;;;31.33;22.65;;;7.40;86.10;;;;;;5057960;28;20027;-78
2024/03/09 03:36:23;;;;;;;33.67;23.05;;;7.40;86.20;;;;;;5049756;28;20031;-77
2024/03/09 03:38:49;;;;;;;32.05;22.50;;;7.40;86.20;;;;;;5055197;28;20103;-77
2024/03/09 03:41:17;;;;;;;34.13;22.10;;;7.40;86.30;;;;;;5043546;28;20056;-78
2024/03/09 03:43:44;;;;;;;30.88;22.23;;;7.40;86.20;;;;;;5052598;28;20043;-76
2024/03/09 03:46:12;;;;;;;32.35;21.83;;;7.40;86.20;;;;;;5055891;28;20032;-77
2024/03/09 03:48:40;;;;;;;31.98;22.45;;;7.40;86.20;;;;;;5048449;28;20028;-78
2024/03/09 03:51:07;;;;;;;32.83;22.92;;;7.30;86.30;;;;;;5053432;28;20035;-76
2024/03/09 03:53:33;;;;;;;31.27;21.70;;;7.30;86.30;;;;;;5051956;28;20024;-77
2024/03/09 03:55:59;;;;;;;31.55;22.17;;;7.30;86.40;;;;;;5051082;28;20029;-77
2024/03/09 03:58:25;;;;;;;31.75;22.63;;;7.20;86.40;;;;;;5057176;28;20105;-77
2024/03/09 04:00:51;;;;;;;32.08;23.13;;;7.20;86.50;;;;;;5054590;28;20103;-78
2024/03/09 04:03:20;;;;;;;31.88;22.75;;;7.20;86.50;;;;;;5047611;28;20032;-76
2024/03/09 04:05:48;;;;;;;33.10;22.83;;;7.10;86.50;;;;;;5054032;28;20028;-79
2024/03/09 04:08:16;;;;;;;32.85;24.10;;;7.10;86.40;;;;;;5058849;28;20056;-76
2024/03/09 04:10:43;;;;;;;32.83;23.65;;;7.10;86.50;;;;;;5055967;28;20029;-77
2024/03/09 04:13:11;;;;;;;32.92;22.73;;;7.10;86.60;;;;;;5061216;28;20564;-77
2024/03/09 04:15:38;;;;;;;35.05;23.27;;;7.00;86.90;;;;;;5070917;28;20028;-76
2024/03/09 04:18:05;;;;;;;32.70;23.63;;;7.00;86.90;;;;;;5054646;28;20044;-79
2024/03/09 04:20:34;;;;;;;34.17;23.38;;;7.00;87.00;;;;;;5055553;28;20046;-77
2024/03/09 04:23:04;;;;;;;33.38;23.13;;;7.00;86.90;;;;;;5052162;28;20062;-77
2024/03/09 04:25:35;;;;;;;35.35;23.63;;;6.90;86.90;;;;;;5053710;28;20039;-77
2024/03/09 04:28:01;;;;;;;32.90;23.10;;;6.80;87.00;;;;;;5053706;28;20212;-75
2024/03/09 04:30:27;;;;;;;32.75;22.50;;;6.80;87.10;;;;;;5049233;28;20123;-76
2024/03/09 04:32:55;;;;;;;31.73;22.55;;;6.80;87.20;;;;;;5049223;28;20070;-78
2024/03/09 04:35:21;;;;;;;34.28;23.45;;;6.70;87.40;;;;;;5051740;28;20021;-76
2024/03/09 04:37:47;;;;;;;31.52;22.85;;;6.70;87.40;;;;;;5052401;28;20025;-77
2024/03/09 04:40:16;;;;;;;34.45;23.40;;;6.70;87.60;;;;;;5056116;28;20417;-77
2024/03/09 04:42:46;;;;;;;33.35;23.40;;;6.60;87.50;;;;;;5057626;28;20076;-77
2024/03/09 04:45:13;;;;;;;33.80;22.98;;;6.60;87.70;;;;;;5057704;28;20116;-75
2024/03/09 04:47:39;;;;;;;33.70;23.45;;;6.60;87.80;;;;;;5058614;28;20046;-77
2024/03/09 04:50:08;;;;;;;32.15;22.23;;;6.60;87.70;;;;;;5060499;28;20473;-78
2024/03/09 04:52:34;;;;;;;32.80;22.92;;;6.60;87.80;;;;;;5056626;28;20108;-76
2024/03/09 04:55:00;;;;;;;34.30;22.60;;;6.60;87.80;;;;;;5054353;28;20479;-78
2024/03/09 04:57:30;;;;;;;33.47;23.48;;;6.50;87.70;;;;;;5061922;28;20051;-78
2024/03/09 04:59:56;;;;;;;32.20;22.83;;;6.50;87.90;;;;;;5056720;28;20036;-75
2024/03/09 05:02:22;;;;;;;34.97;23.00;;;6.50;87.90;;;;;;5053700;28;20536;-77
2024/03/09 05:04:47;;;;;;;31.90;22.75;;;6.40;88.00;;;;;;5049828;28;20059;-76
2024/03/09 05:07:13;;;;;;;36.05;23.98;;;6.40;88.00;;;;;;5062580;28;20025;-76
2024/03/09 05:09:40;;;;;;;33.45;23.25;;;6.30;88.10;;;;;;5056279;28;20410;-78
2024/03/09 05:12:06;;;;;;;31.52;22.10;;;6.30;88.20;;;;;;5054667;28;20029;-75
2024/03/09 05:14:31;;;;;;;32.28;22.80;;;6.30;88.20;;;;;;5056450;28;20112;-76
2024/03/09 05:16:58;;;;;;;31.90;22.35;;;6.20;88.30;;;;;;5059335;28;20116;-76
2024/03/09 05:19:24;;;;;;;34.10;22.63;;;6.20;88.50;;;;;;5055013;28;20020;-78
2024/03/09 05:21:51;;;;;;;31.20;22.13;;;6.20;88.50;;;;;;5056165;28;20044;-77
2024/03/09 05:24:20;;;;;;;33.75;22.08;;;6.10;88.60;;;;;;5057623;28;20015;-77
2024/03/09 05:26:46;;;;;;;34.55;24.08;;;6.10;88.70;;;;;;5057557;28;20055;-76
2024/03/09 05:29:11;;;;;;;33.70;22.95;;;6.10;88.80;;;;;;5060594;28;20390;-79
2024/03/09 05:31:38;;;;;;;34.33;23.33;;;6.10;88.80;;;;;;5056398;28;20098;-76
2024/03/09 05:34:07;;;;;;;34.58;24.05;;;6.10;88.80;;;;;;5057913;28;20029;-77
2024/03/09 05:36:32;;;;;;;34.83;23.77;;;6.00;88.90;;;;;;5055285;28;20040;-79
2024/03/09 05:38:58;;;;;;;35.65;23.10;;;6.00;89.00;;;;;;5056636;28;20039;-77
2024/03/09 05:41:24;;;;;;;36.15;23.45;;;6.00;89.10;;;;;;5053947;28;20116;-78
2024/03/09 05:43:50;;;;;;;34.20;22.35;;;6.10;89.20;;;;;;5059129;28;20440;-77
2024/03/09 05:46:19;;;;;;;33.17;23.23;;;6.10;89.30;;;;;;5058847;28;20043;-76
2024/03/09 05:48:45;;;;;;;33.92;23.40;;;6.00;89.20;;;;;;5061083;28;20063;-77
2024/03/09 05:51:18;;;;;;;32.80;22.40;;;6.00;89.20;;;;;;5053748;28;20061;-78
2024/03/09 05:53:44;;;;;;;36.38;25.05;;;6.00;89.30;;;;;;5053647;28;20032;-76
2024/03/09 05:56:13;;;;;;;34.65;23.23;;;6.00;89.30;;;;;;5052485;28;20446;-76
2024/03/09 05:58:39;;;;;;;33.67;23.90;;;6.10;89.50;;;;;;5054009;28;20021;-77
2024/03/09 06:01:05;;;;;;;36.35;24.42;;;6.10;89.30;;;;;;5053748;28;20035;-78
2024/03/09 06:03:30;;;;;;;34.80;23.15;;;6.10;89.40;;;;;;5052441;28;20028;-77
2024/03/09 06:05:57;;;;;;;33.03;22.98;;;6.00;89.30;;;;;;5054813;28;20024;-78
2024/03/09 06:08:22;;;;;;;35.80;24.05;;;6.00;89.30;;;;;;5062899;28;20024;-75
2024/03/09 06:10:49;;;;;;;36.53;25.23;;;6.00;89.30;;;;;;5046784;28;20075;-76
2024/03/09 06:13:18;;;;;;;35.65;24.00;;;5.90;89.30;;;;;;5056088;28;20008;-78
2024/03/09 06:15:45;;;;;;;34.35;23.88;;;5.90;89.40;;;;;;5053266;28;20032;-76
2024/03/09 06:18:11;;;;;;;37.67;25.30;;;5.90;89.40;;;;;;5056038;28;20025;-76
2024/03/09 06:20:41;;;;;;;40.60;26.58;;;6.00;89.50;;;;;;5053232;28;20028;-77
2024/03/09 06:23:06;;;;;;;37.03;24.08;;;6.00;89.40;;;;;;5057604;28;20323;-74
2024/03/09 06:25:32;;;;;;;38.85;24.85;;;6.10;89.40;;;;;;5051860;28;20036;-76
2024/03/09 06:28:02;;;;;;;40.97;25.73;;;6.10;89.30;;;;;;5055302;28;20111;-75
2024/03/09 06:30:28;;;;;;;36.60;24.33;;;6.10;89.10;;;;;;5051709;28;20028;-78
2024/03/09 06:32:54;;;;;;;38.03;25.50;;;6.10;89.10;;;;;;5053502;28;20024;-75
2024/03/09 06:35:20;;;;;;;38.00;24.98;;;6.10;89.20;;;;;;5056594;28;20418;-76
2024/03/09 06:37:59;;;;;;;36.70;22.92;;;6.10;89.10;;;;;;5056328;28;20029;-75
2024/03/09 06:40:32;;;;;;;35.28;23.35;;;6.10;89.00;;;;;;5051863;28;20035;-77
2024/03/09 06:42:59;;;;;;;38.00;25.67;;;6.10;89.10;;;;;;5055295;28;20049;-76
2024/03/09 06:45:28;;;;;;;37.22;25.08;;;6.20;89.00;;;;;;5057160;28;20032;-76
2024/03/09 06:47:57;;;;;;;35.75;24.27;;;6.30;89.00;;;;;;5056504;28;20025;-75
2024/03/09 06:50:28;;;;;;;35.78;23.88;;;6.40;88.60;;;;;;5059781;28;20487;-75
2024/03/09 06:52:54;;;;;;;36.67;23.58;;;6.40;88.30;;;;;;5047894;28;20017;-74
2024/03/09 06:55:24;;;;;;;38.28;23.25;;;6.40;88.30;;;;;;5059291;28;20035;-75
2024/03/09 06:57:51;;;;;;;35.83;24.00;;;6.50;88.20;;;;;;5056886;28;20017;-74
2024/03/09 07:00:17;;;;;;;33.90;23.95;;;6.50;88.20;;;;;;5049525;28;20028;-72
2024/03/09 07:02:43;;;;;;;36.60;24.27;;;6.50;88.30;;;;;;5053310;28;20021;-72
2024/03/09 07:05:09;;;;;;;34.47;23.60;;;6.60;88.40;;;;;;5051139;28;20228;-72
2024/03/09 07:07:39;;;;;;;33.30;23.83;;;6.60;88.50;;;;;;5057696;28;20028;-73
2024/03/09 07:10:12;;;;;;;32.97;23.08;;;6.60;88.50;;;;;;5055474;28;20474;-72
2024/03/09 07:12:40;;;;;;;32.58;21.92;;;6.70;88.50;;;;;;5056258;28;20020;-73
2024/03/09 07:15:16;;;;;;;36.25;22.88;;;6.80;88.40;;;;;;5053091;28;20628;-72
2024/03/09 07:17:44;;;;;;;33.25;22.95;;;6.80;88.30;;;;;;5053513;28;20420;-72
2024/03/09 07:20:11;;;;;;;33.25;21.55;;;6.90;88.20;;;;;;5058225;28;20077;-73
2024/03/09 07:22:41;;;;;;;33.65;22.63;;;7.00;88.20;;;;;;5056401;28;20020;-72
2024/03/09 07:25:15;;;;;;;32.05;22.20;;;7.00;88.20;;;;;;5048242;28;20123;-72
2024/03/09 07:27:43;;;;;;;35.20;23.38;;;7.10;88.00;;;;;;5052421;28;20040;-74
2024/03/09 07:30:11;;;;;;;35.42;23.23;;;7.20;88.00;;;;;;5053842;28;20033;-74
2024/03/09 07:32:43;;;;;;;32.80;21.15;;;7.30;87.60;;;;;;5054792;28;20063;-74
2024/03/09 07:35:15;;;;;;;34.22;22.23;;;7.40;87.40;;;;;;5057658;28;20472;-75
2024/03/09 07:37:52;;;;;;;32.55;21.90;;;7.50;87.10;;;;;;5053439;28;20037;-74
2024/03/09 07:40:22;;;;;;;32.50;22.48;;;7.60;86.80;;;;;;5054314;28;20031;-74
2024/03/09 07:42:48;;;;;;;33.45;21.15;;;7.70;86.60;;;;;;5052765;28;20383;-74
2024/03/09 07:45:15;;;;;;;32.28;21.98;;;7.80;86.30;;;;;;5054399;28;20482;-75
2024/03/09 07:47:43;;;;;;;30.17;20.10;;;7.80;86.10;;;;;;5054698;28;20033;-74
2024/03/09 07:50:14;;;;;;;29.83;20.27;;;8.00;86.00;;;;;;5054480;28;20064;-74
2024/03/09 07:52:52;;;;;;;31.05;21.23;;;8.00;85.90;;;;;;5052398;28;20017;-74
2024/03/09 07:55:22;;;;;;;31.70;21.75;;;8.10;85.70;;;;;;5055217;28;20447;-73
2024/03/09 07:57:48;;;;;;;31.35;21.20;;;8.10;85.80;;;;;;5050553;28;20013;-79
2024/03/09 08:00:19;;;;;;;29.30;21.35;;;8.20;85.70;;;;;;5055868;28;20084;-74
2024/03/09 08:02:49;;;;;;;29.92;20.50;;;8.30;85.40;;;;;;5054682;28;20032;-76
2024/03/09 08:05:16;;;;;;;30.65;20.50;;;8.50;85.10;;;;;;5055677;28;20111;-74
2024/03/09 08:07:48;;;;;;;29.88;19.88;;;8.60;84.60;;;;;;5055040;28;20024;-74
2024/03/09 08:10:21;;;;;;;32.03;20.40;;;8.70;84.40;;;;;;5055138;28;20047;-74
2024/03/09 08:12:48;;;;;;;31.05;20.65;;;8.90;83.80;;;;;;5054612;28;20025;-71
2024/03/09 08:15:14;;;;;;;29.13;19.50;;;9.10;83.90;;;;;;5049918;28;20345;-72
2024/03/09 08:17:44;;;;;;;27.60;20.13;;;9.20;83.60;;;;;;5054090;28;20447;-72
2024/03/09 08:20:14;;;;;;;28.42;19.13;;;9.50;82.80;;;;;;5053412;28;20044;-74
2024/03/09 08:22:41;;;;;;;25.52;18.48;;;9.60;82.20;;;;;;5058339;28;20021;-75
2024/03/09 08:25:15;;;;;;;34.78;18.73;;;9.80;81.50;;;;;;5058261;28;20203;-74
2024/03/09 08:27:42;;;;;;;25.95;18.27;;;10.00;80.80;;;;;;5053571;28;20212;-74
2024/03/09 08:30:18;;;;;;;25.88;17.73;;;10.10;80.50;;;;;;5054504;28;20033;-74
2024/03/09 08:32:59;;;;;;;26.75;18.73;;;10.40;80.20;;;;;;5053048;28;20035;-74
2024/03/09 08:35:27;;;;;;;28.15;17.05;;;10.60;80.10;;;;;;5059507;28;20033;-74
2024/03/09 08:37:53;;;;;;;27.77;17.65;;;10.70;79.50;;;;;;5056429;28;20221;-74
2024/03/09 08:40:23;;;;;;;22.88;16.75;;;10.90;79.00;;;;;;5058432;28;20029;-74
2024/03/09 08:42:52;;;;;;;22.08;14.65;;;11.10;78.80;;;;;;5056145;28;20048;-73
2024/03/09 08:45:20;;;;;;;24.25;15.40;;;11.20;77.10;;;;;;5059412;28;20030;-73
2024/03/09 08:47:46;;;;;;;23.30;15.27;;;11.50;76.50;;;;;;5056515;28;20020;-75
2024/03/09 08:50:12;;;;;;;19.88;14.60;;;11.50;76.10;;;;;;5055905;28;20625;-75
2024/03/09 08:52:38;;;;;;;22.50;14.65;;;11.60;76.00;;;;;;5062952;28;20031;-74
2024/03/09 08:55:10;;;;;;;21.30;13.88;;;11.70;75.10;;;;;;5055398;28;20036;-75
2024/03/09 08:57:40;;;;;;;22.33;14.60;;;11.80;74.90;;;;;;5057699;28;20506;-75
2024/03/09 09:00:07;;;;;;;21.13;14.13;;;11.90;74.90;;;;;;5057284;28;20033;-77
2024/03/09 09:02:33;;;;;;;21.70;14.73;;;12.10;74.50;;;;;;5052211;28;20405;-76
2024/03/09 09:04:59;;;;;;;21.88;14.10;;;12.30;74.30;;;;;;5058268;28;20033;-76
2024/03/09 09:07:25;;;;;;;18.67;12.93;;;12.50;74.10;;;;;;5062038;28;20538;-76
2024/03/09 09:09:51;;;;;;;16.65;11.77;;;12.50;72.80;;;;;;5051877;28;20866;-76
2024/03/09 09:12:17;;;;;;;18.42;12.55;;;12.60;72.90;;;;;;5050378;28;20385;-76
2024/03/09 09:14:46;;;;;;;15.75;11.23;;;12.60;72.50;;;;;;5060018;28;20032;-77
2024/03/09 09:17:12;;;;;;;18.52;11.90;;;12.60;71.60;;;;;;5058786;28;20114;-76
2024/03/09 09:19:38;;;;;;;16.40;11.30;;;12.70;70.10;;;;;;5052338;28;20040;-76
2024/03/09 09:22:06;;;;;;;15.20;10.43;;;12.90;71.00;;;;;;5058353;28;20033;-74
2024/03/09 09:24:32;;;;;;;18.23;10.93;;;12.80;69.70;;;;;;5055963;28;20025;-76
2024/03/09 09:26:58;;;;;;;16.85;11.18;;;12.90;70.00;;;;;;5049644;28;20024;-73
2024/03/09 09:29:31;;;;;;;16.25;10.65;;;12.90;69.60;;;;;;5060024;28;20058;-74
2024/03/09 09:32:00;;;;;;;16.73;11.40;;;12.80;69.30;;;;;;5054502;28;20119;-75
2024/03/09 09:34:28;;;;;;;17.33;10.88;;;12.90;70.00;;;;;;5048309;28;20024;-75
2024/03/09 09:36:54;;;;;;;17.13;11.25;;;13.00;69.90;;;;;;5056889;28;20028;-77
2024/03/09 09:39:25;;;;;;;17.17;12.15;;;13.10;68.90;;;;;;5055945;28;20085;-77
2024/03/09 09:41:57;;;;;;;16.00;11.10;;;13.20;69.70;;;;;;5050765;28;20032;-78
2024/03/09 09:44:26;;;;;;;17.75;11.18;;;13.20;68.90;;;;;;5053622;28;20358;-75
2024/03/09 09:46:53;;;;;;;15.40;11.18;;;13.10;68.80;;;;;;5056466;28;20024;-75
2024/03/09 09:49:22;;;;;;;18.42;11.50;;;13.10;68.40;;;;;;5056007;28;20047;-76
2024/03/09 09:51:51;;;;;;;15.88;11.23;;;13.30;69.30;;;;;;5057694;28;20024;-76
2024/03/09 09:54:27;;;;;;;16.23;11.35;;;13.50;68.80;;;;;;5047491;28;20012;-75
2024/03/09 09:56:55;;;;;;;16.52;11.20;;;13.60;68.20;;;;;;5055180;28;20051;-76
2024/03/09 09:59:24;;;;;;;19.30;11.35;;;13.60;68.90;;;;;;5052743;28;20100;-76
2024/03/09 10:01:50;;;;;;;16.50;10.32;;;13.90;68.20;;;;;;5058246;28;20037;-76
2024/03/09 10:04:19;;;;;;;16.40;9.98;;;14.00;67.20;;;;;;5058231;28;20047;-78
2024/03/09 10:06:50;;;;;;;14.75;9.68;;;14.00;67.40;;;;;;5059135;28;20905;-75
2024/03/09 10:09:28;;;;;;;13.63;9.52;;;14.00;67.00;;;;;;5053531;28;20086;-78
2024/03/09 10:11:54;;;;;;;15.95;9.40;;;14.00;66.90;;;;;;5054243;28;20444;-77
2024/03/09 10:14:30;;;;;;;14.13;8.95;;;14.10;67.30;;;;;;5055707;28;20028;-76
2024/03/09 10:17:06;;;;;;;12.55;8.35;;;14.10;66.20;;;;;;5055316;28;20116;-77
2024/03/09 10:19:34;;;;;;;13.68;8.77;;;14.20;66.00;;;;;;5043516;28;20480;-77
2024/03/09 10:22:00;;;;;;;14.38;8.60;;;14.30;66.40;;;;;;5055633;28;20033;-77
2024/03/09 10:24:26;;;;;;;12.43;8.35;;;14.30;65.90;;;;;;5039303;28;20098;-78
2024/03/09 10:26:54;;;;;;;11.93;8.30;;;14.50;66.30;;;;;;5047031;28;20568;-74
2024/03/09 10:29:21;;;;;;;12.93;8.43;;;14.50;65.30;;;;;;5052073;28;20021;-74
2024/03/09 10:31:50;;;;;;;13.30;8.30;;;14.50;65.70;;;;;;5049297;28;20078;-73
2024/03/09 10:34:16;;;;;;;15.52;9.68;;;14.60;65.60;;;;;;5041157;28;20111;-74
2024/03/09 10:36:43;;;;;;;14.07;8.48;;;14.50;65.10;;;;;;5040742;28;20039;-75
2024/03/09 10:39:09;;;;;;;12.23;8.13;;;14.40;65.00;;;;;;5051680;28;20044;-75
2024/03/09 10:41:35;;;;;;;12.77;8.30;;;14.40;64.20;;;;;;5050696;28;20032;-74
2024/03/09 10:44:02;;;;;;;11.00;7.65;;;14.40;64.30;;;;;;5054715;28;20055;-74
2024/03/09 10:46:32;;;;;;;12.02;8.00;;;14.50;64.20;;;;;;5055565;28;20575;-73
2024/03/09 10:48:58;;;;;;;12.85;8.05;;;14.60;64.10;;;;;;5059349;28;20029;-74
2024/03/09 10:51:50;;;;;;;11.68;7.80;;;14.60;64.30;;;;;;5052344;28;20128;-73
2024/03/09 10:55:02;;;;;;;12.15;8.45;;;14.60;63.90;;;;;;5056587;28;20033;-74
2024/03/09 10:57:29;;;;;;;13.00;7.57;;;14.80;64.10;;;;;;5045968;28;20032;-74
2024/03/09 10:59:57;;;;;;;11.45;7.60;;;14.90;64.10;;;;;;5047404;28;20060;-74
2024/03/09 11:02:23;;;;;;;13.20;7.72;;;15.00;64.80;;;;;;5051713;28;20032;-74
2024/03/09 11:04:50;;;;;;;12.00;7.60;;;15.10;63.60;;;;;;5050878;28;20104;-73
2024/03/09 11:07:22;;;;;;;14.32;7.75;;;15.10;63.20;;;;;;5055096;28;20115;-73
2024/03/09 11:09:53;;;;;;;11.95;7.20;;;15.10;63.70;;;;;;5054418;28;20033;-74
2024/03/09 11:12:20;;;;;;;10.93;7.00;;;15.10;62.20;;;;;;5050667;28;20497;-74
2024/03/09 11:14:50;;;;;;;11.05;7.07;;;15.10;62.20;;;;;;5049323;28;20041;-73
2024/03/09 11:17:21;;;;;;;11.73;7.47;;;15.20;62.90;;;;;;5050984;28;20399;-74
2024/03/09 11:19:56;;;;;;;9.18;6.07;;;15.20;62.10;;;;;;5050167;28;20437;-74
2024/03/09 11:22:46;;;;;;;10.20;6.95;;;15.40;62.00;;;;;;5053193;28;20113;-74
2024/03/09 11:25:15;;;;;;;12.25;7.30;;;15.50;62.60;;;;;;5050675;28;20036;-73
2024/03/09 11:27:44;;;;;;;10.27;6.75;;;15.40;61.90;;;;;;5054721;28;20017;-76
2024/03/09 11:30:12;;;;;;;11.68;7.07;;;15.60;61.80;;;;;;5053105;28;20047;-75
2024/03/09 11:32:41;;;;;;;9.60;6.22;;;15.50;61.70;;;;;;5057391;28;20020;-74
2024/03/09 11:35:26;;;;;;;13.07;6.88;;;15.50;60.60;;;;;;5050534;28;20032;-73
2024/03/09 11:37:52;;;;;;;11.60;6.88;;;15.20;61.90;;;;;;5053201;28;20036;-73
2024/03/09 11:40:18;;;;;;;10.27;6.57;;;15.40;62.30;;;;;;5052093;28;20034;-73
2024/03/09 11:42:44;;;;;;;11.68;7.60;;;15.50;62.50;;;;;;5053598;28;20047;-73
2024/03/09 11:45:13;;;;;;;14.52;8.20;;;15.40;62.10;;;;;;5055366;28;20060;-74
2024/03/09 11:47:39;;;;;;;17.08;10.23;;;15.30;62.00;;;;;;5052627;28;20012;-74
2024/03/09 11:50:05;;;;;;;16.95;9.38;;;15.50;62.20;;;;;;5058652;28;20487;-73
2024/03/09 11:52:32;;;;;;;13.07;7.90;;;15.70;62.50;;;;;;5064229;28;20115;-74
2024/03/09 11:55:05;;;;;;;11.88;7.25;;;15.70;60.40;;;;;;5052511;28;20059;-74
2024/03/09 11:57:37;;;;;;;14.10;8.20;;;15.50;61.50;;;;;;5061907;28;20025;-74
2024/03/09 12:00:06;;;;;;;11.52;7.70;;;15.40;60.90;;;;;;5057162;28;20055;-74
2024/03/09 12:02:34;;;;;;;40.00;27.77;;;15.50;62.00;;;;;;5062904;28;20078;-75
2024/03/09 12:05:01;;;;;;;24.63;15.82;;;15.40;61.60;;;;;;5060811;28;20566;-74
2024/03/09 12:07:27;;;;;;;14.10;12.10;;;15.50;61.50;;;;;;5059149;28;20020;-74
2024/03/09 12:09:55;;;;;;;10.98;7.18;;;15.50;61.80;;;;;;5054903;28;20045;-76
2024/03/09 12:12:21;;;;;;;10.80;7.20;;;15.50;61.30;;;;;;5060814;28;20207;-76
2024/03/09 12:14:47;;;;;;;12.07;7.82;;;15.60;61.80;;;;;;5055656;28;20032;-75
2024/03/09 12:17:14;;;;;;;15.25;8.57;;;15.50;61.20;;;;;;5060280;28;20112;-76
2024/03/09 12:19:41;;;;;;;11.65;7.82;;;15.40;61.30;;;;;;5061188;28;20033;-76
2024/03/09 12:22:09;;;;;;;11.45;7.82;;;15.20;61.70;;;;;;5060108;28;20101;-76
2024/03/09 12:24:35;;;;;;;12.93;7.30;;;15.40;62.50;;;;;;5058884;28;20467;-74
2024/03/09 12:27:01;;;;;;;10.43;6.75;;;15.20;61.60;;;;;;5061655;28;20369;-75
2024/03/09 12:29:27;;;;;;;13.13;7.63;;;15.30;61.70;;;;;;5054798;28;20031;-76
2024/03/09 12:31:56;;;;;;;12.57;7.70;;;15.20;61.90;;;;;;5060648;28;20032;-74
2024/03/09 12:34:21;;;;;;;11.93;6.78;;;15.20;61.70;;;;;;5061191;28;20159;-76
2024/03/09 12:36:53;;;;;;;10.05;6.85;;;15.30;62.90;;;;;;5057490;28;20016;-75
2024/03/09 12:39:20;;;;;;;11.77;6.93;;;15.40;62.00;;;;;;5057007;28;20040;-76
2024/03/09 12:41:50;;;;;;;12.13;7.18;;;15.50;61.40;;;;;;5059900;28;20092;-74